Amarillo, TX (79101)

2:53 PM CDT en Octubre 31, 2014 (GMT -0500)
Oliver-Eakle | Change Station
CLOSE
Current Station
Estación meteorológica personal
Location: Amarillo, TX
Altura: 3678 ft
Estaciones meteorológicas cercanas

Alt 3678 ft 35.19 °N, 101.84 °W | Updated 6 seconds ago

Despejado
Despejado
63.9 ° F
Sensación térmica 63.9 ° F
N
2.0
Viento Variable Viento desde SE
Gusts 4.6 mph

Hoy
Alta -- | Baja -- ° F
--% Posibilidad de precipitaciones
Ayer
Alta -- | Baja -- ° F
Precip. -- pul
8:07 AM 6:53 PM
Cuarto creciente, 58% visible
Presión 30.37 pul
Visibilidad 10.0 Millas
Nubes Despejado
Punto de rocío 33 ° F
Humedad 32%
Precipitaciones 0.00 pul
Espesor de la nieve No disponible.
UV 6 de una escala de 12
Polen 5.10 de una escala de 12
Calidad del aire No disponible.
Flu Activity No disponible.
METAR KAMA 311853Z 10009KT 10SM CLR 14/M01 A3042 RMK AO2 SLP282 T01441011

More Conditions Fewer Conditions

Presión 30.37 pul
Visibilidad 10.0 Millas
Nubes Despejado
Punto de rocío 33 ° F
Humedad 32%
Precipitaciones 0.00 pul
Espesor de la nieve No disponible.
UV 6 de una escala de 12
Polen 5.10 de una escala de 12
Calidad del aire No disponible.
Flu Activity No disponible.
METAR KAMA 311853Z 10009KT 10SM CLR 14/M01 A3042 RMK AO2 SLP282 T01441011

More Conditions Fewer Conditions

10-Day Weather Forecast

Almanac

Astronomía

Oct. 31, 2014 Salida Puesta
Hora real
Crepúsculo civil
Crepúsculo náutico
Crepúsculo astronómico
Luna
Horas de luz
Horas de luz
Tomorrow will be .
, % of the Moon is Illuminated

Extremos de hoy

Máximos del estado Bajos del estado

Community

WunderPhotos

Upload Photos

1,766,711 ¡fotos cargadas!

WunderBlogs® & News

Nearby

Calidad del aire

  Calidad del aire Índice AQ Contaminante
Not available.

Grosos de nieve

Estación Profundido Altura

Actividad de terremotos

Ciudad Distance Mag. Tiempo y dato
Magnitud mínima muestra es 2,5.

Temperaturas de aguas costeras

Lugar Temperatura

Estaciones meteorológicas cercanas